Time;durP1;ratioP1;P1;durP2;ratioP2;P2;SDS_P1;SDS_P2;PMS_P1;PMS_P2;Temp;Humidity;BMP_temperature;BMP_pressure;BME280_temperature;BME280_humidity;BME280_pressure;Samples;Min_cycle;Max_cycle;Signal;HPM_P1;HPM_P2
2021/08/20 00:00:08;;;;;;;5.23;3.80;;;17.40;99.90;;;;;;4957430;29;20395;-66
2021/08/20 00:02:43;;;;;;;4.47;4.07;;;17.50;1.00;;;;;;4940400;29;20451;-66
2021/08/20 00:05:12;;;;;;;10.00;4.73;;;17.50;1.00;;;;;;4957414;29;20435;-65
2021/08/20 00:07:40;;;;;;;5.03;4.40;;;17.50;99.90;;;;;;4957187;29;20426;-66
2021/08/20 00:10:09;;;;;;;5.47;3.40;;;17.50;99.90;;;;;;4957132;29;20478;-66
2021/08/20 00:12:37;;;;;;;7.23;4.10;;;17.60;99.90;;;;;;4957452;29;20433;-66
2021/08/20 00:15:08;;;;;;;4.57;4.07;;;17.70;1.00;;;;;;4957126;29;20772;-66
2021/08/20 00:17:37;;;;;;;5.60;4.20;;;17.70;99.90;;;;;;4957115;28;20466;-66
2021/08/20 00:20:06;;;;;;;7.27;4.90;;;17.60;99.90;;;;;;4956962;28;20503;-66
2021/08/20 00:22:34;;;;;;;7.37;4.40;;;17.60;99.90;;;;;;4957600;29;20514;-66
2021/08/20 00:25:03;;;;;;;6.30;4.47;;;17.60;1.00;;;;;;4957313;28;20435;-65
2021/08/20 00:27:31;;;;;;;5.10;3.80;;;17.60;1.00;;;;;;4954312;28;20399;-66
2021/08/20 00:30:00;;;;;;;5.53;4.23;;;17.70;1.00;;;;;;4954228;29;20459;-66
2021/08/20 00:32:29;;;;;;;5.40;4.83;;;17.70;99.90;;;;;;4954232;29;20910;-67
2021/08/20 00:34:57;;;;;;;5.43;3.87;;;17.70;1.00;;;;;;4954148;29;20960;-66
2021/08/20 00:37:25;;;;;;;6.50;3.63;;;17.70;1.00;;;;;;4954486;29;20431;-66
2021/08/20 00:39:55;;;;;;;4.40;4.00;;;17.60;1.00;;;;;;4937180;29;20439;-66
2021/08/20 00:42:23;;;;;;;5.33;4.50;;;17.60;99.90;;;;;;4954295;29;20418;-66
2021/08/20 00:44:52;;;;;;;6.37;5.00;;;17.70;1.00;;;;;;4954028;29;20431;-67
2021/08/20 00:47:20;;;;;;;6.77;3.90;;;17.70;1.00;;;;;;4936312;29;20407;-67
2021/08/20 00:49:51;;;;;;;4.30;3.60;;;17.80;1.00;;;;;;4954040;29;20450;-66
2021/08/20 00:52:20;;;;;;;5.80;4.97;;;17.70;1.00;;;;;;4936738;29;20541;-66
2021/08/20 00:54:48;;;;;;;4.13;3.43;;;17.60;1.00;;;;;;4954211;29;21066;-67
2021/08/20 00:57:17;;;;;;;6.10;3.60;;;17.50;1.00;;;;;;4936275;29;20500;-67
2021/08/20 00:59:46;;;;;;;5.07;4.67;;;17.40;99.90;;;;;;4953571;29;20531;-67
2021/08/20 01:02:15;;;;;;;5.63;4.10;;;17.30;99.90;;;;;;4936448;29;20460;-67
2021/08/20 01:04:46;;;;;;;6.80;4.20;;;17.30;99.90;;;;;;4954121;29;20436;-67
2021/08/20 01:07:17;;;;;;;4.07;3.37;;;17.40;99.90;;;;;;4953442;29;20428;-67
2021/08/20 01:09:47;;;;;;;5.53;3.60;;;17.50;99.90;;;;;;4953737;29;20980;-67
2021/08/20 01:12:15;;;;;;;4.30;3.77;;;17.70;98.00;;;;;;4936386;29;20518;-67
2021/08/20 01:14:43;;;;;;;4.70;3.67;;;17.70;99.90;;;;;;4936419;29;20482;-67
2021/08/20 01:17:11;;;;;;;3.50;3.00;;;17.70;1.00;;;;;;4935672;29;20439;-67
2021/08/20 01:19:39;;;;;;;3.87;2.90;;;17.50;1.00;;;;;;4953631;29;20448;-66
2021/08/20 01:22:08;;;;;;;4.83;3.27;;;17.50;99.90;;;;;;4953327;29;20487;-67
2021/08/20 01:24:46;;;;;;;5.30;3.80;;;17.50;99.90;;;;;;4936238;29;20414;-67
2021/08/20 01:27:21;;;;;;;3.33;3.03;;;17.50;99.90;;;;;;4935681;29;20451;-67
2021/08/20 01:29:49;;;;;;;3.60;3.30;;;17.60;1.00;;;;;;4953307;29;20463;-67
2021/08/20 01:32:19;;;;;;;3.97;2.90;;;17.50;1.00;;;;;;4935809;29;20472;-67
2021/08/20 01:34:47;;;;;;;4.20;3.40;;;17.50;99.90;;;;;;4936108;29;20517;-67
2021/08/20 01:37:15;;;;;;;3.53;2.60;;;17.70;1.00;;;;;;4935340;29;20471;-67
2021/08/20 01:39:44;;;;;;;3.90;3.20;;;17.80;1.00;;;;;;4935972;29;20941;-67
2021/08/20 01:42:14;;;;;;;4.27;3.80;;;17.80;99.90;;;;;;4935798;29;20457;-66
2021/08/20 01:44:45;;;;;;;4.17;3.40;;;17.70;99.90;;;;;;4936053;29;20502;-66
2021/08/20 01:47:13;;;;;;;4.27;2.60;;;17.80;99.90;;;;;;4935310;29;20419;-66
2021/08/20 01:49:44;;;;;;;4.30;3.67;;;17.60;99.90;;;;;;4935710;29;20546;-66
2021/08/20 01:52:13;;;;;;;4.97;3.03;;;17.80;1.00;;;;;;4935687;29;20469;-66
2021/08/20 01:54:41;;;;;;;6.37;4.23;;;17.90;90.20;;;;;;4952998;29;20499;-67
2021/08/20 01:57:09;;;;;;;5.90;3.70;;;17.90;1.00;;;;;;4935067;29;20402;-67
2021/08/20 01:59:38;;;;;;;2.93;2.60;;;17.90;1.00;;;;;;4935611;29;20519;-66
2021/08/20 02:02:07;;;;;;;6.40;4.60;;;18.00;1.00;;;;;;4935369;29;20566;-66
2021/08/20 02:04:36;;;;;;;6.00;5.23;;;18.10;96.90;;;;;;4952676;29;20413;-67
2021/08/20 02:07:05;;;;;;;7.60;6.80;;;18.20;1.00;;;;;;4934969;29;20478;-67
2021/08/20 02:09:33;;;;;;;8.97;7.53;;;18.00;1.00;;;;;;4935516;29;20521;-67
2021/08/20 02:12:01;;;;;;;8.50;7.63;;;17.90;99.90;;;;;;4935384;29;20434;-67
2021/08/20 02:14:37;;;;;;;9.60;8.17;;;18.00;99.90;;;;;;4935625;29;20805;-67
2021/08/20 02:17:08;;;;;;;8.67;7.17;;;18.20;1.00;;;;;;4935445;29;20447;-66
2021/08/20 02:19:39;;;;;;;7.17;6.47;;;18.20;99.90;;;;;;4952696;29;20424;-67
2021/08/20 02:22:07;;;;;;;8.60;5.90;;;18.10;99.90;;;;;;4952396;29;20448;-66
2021/08/20 02:24:45;;;;;;;8.20;6.40;;;17.90;1.00;;;;;;4935338;29;20445;-67
2021/08/20 02:27:13;;;;;;;7.77;5.13;;;17.90;99.90;;;;;;4951746;29;20433;-67
2021/08/20 02:29:41;;;;;;;8.03;6.00;;;17.90;99.90;;;;;;4953269;29;20461;-67
2021/08/20 02:32:11;;;;;;;6.73;5.07;;;18.00;93.00;;;;;;4935333;29;20455;-67
2021/08/20 02:34:39;;;;;;;5.77;4.80;;;18.00;1.00;;;;;;4952635;29;20431;-67
2021/08/20 02:37:07;;;;;;;7.10;4.97;;;18.20;1.00;;;;;;4934459;29;20436;-66
2021/08/20 02:39:35;;;;;;;7.30;4.53;;;18.10;99.90;;;;;;4934668;29;20414;-67
2021/08/20 02:42:05;;;;;;;5.13;3.93;;;18.10;1.00;;;;;;4934499;29;20449;-66
2021/08/20 02:44:33;;;;;;;9.23;5.30;;;18.10;99.90;;;;;;4934971;29;20421;-66
2021/08/20 02:47:02;;;;;;;4.97;4.47;;;17.90;1.00;;;;;;4951762;29;20421;-67
2021/08/20 02:49:31;;;;;;;5.57;4.50;;;17.90;1.00;;;;;;4934739;28;20547;-66
2021/08/20 02:51:59;;;;;;;6.93;3.63;;;17.90;1.00;;;;;;4934856;29;20466;-66
2021/08/20 02:54:31;;;;;;;5.63;4.37;;;18.10;1.00;;;;;;4934748;29;20438;-66
2021/08/20 02:56:59;;;;;;;4.93;3.93;;;18.00;1.00;;;;;;4934028;29;20989;-66
2021/08/20 02:59:29;;;;;;;6.33;4.10;;;17.70;1.00;;;;;;4934664;29;20439;-66
2021/08/20 03:02:01;;;;;;;5.30;3.43;;;17.60;1.00;;;;;;4934626;29;20487;-67
2021/08/20 03:04:31;;;;;;;6.50;3.90;;;17.50;99.90;;;;;;4935395;29;20421;-67
2021/08/20 03:06:59;;;;;;;4.87;3.80;;;17.30;29.00;;;;;;4934452;29;20878;-66
2021/08/20 03:09:40;;;;;;;6.00;4.33;;;17.20;99.90;;;;;;4934701;29;20444;-66
2021/08/20 03:12:10;;;;;;;4.23;3.60;;;17.10;42.70;;;;;;4952051;29;20450;-66
2021/08/20 03:14:47;;;;;;;6.17;4.10;;;17.20;99.90;;;;;;4934733;29;20467;-66
2021/08/20 03:17:15;;;;;;;6.27;4.10;;;17.40;1.00;;;;;;4934162;29;20922;-66
2021/08/20 03:19:46;;;;;;;3.73;3.23;;;17.50;99.90;;;;;;4934544;29;20449;-66
2021/08/20 03:22:14;;;;;;;4.60;3.40;;;17.70;99.90;;;;;;4934237;29;20538;-65
2021/08/20 03:24:42;;;;;;;4.80;3.50;;;17.70;1.00;;;;;;4934764;29;20428;-67
2021/08/20 03:27:11;;;;;;;6.53;4.03;;;17.60;1.00;;;;;;4933798;29;20447;-65
2021/08/20 03:29:47;;;;;;;4.07;3.30;;;17.70;1.00;;;;;;4934300;29;20418;-67
2021/08/20 03:32:25;;;;;;;4.50;4.07;;;17.80;1.00;;;;;;4934332;29;20549;-66
2021/08/20 03:34:55;;;;;;;4.37;3.80;;;18.00;45.30;;;;;;4934448;29;20481;-67
2021/08/20 03:37:25;;;;;;;6.90;4.50;;;18.10;1.00;;;;;;4933995;29;20865;-66
2021/08/20 03:39:54;;;;;;;5.00;4.07;;;18.10;99.90;;;;;;4934282;29;20469;-66
2021/08/20 03:42:24;;;;;;;8.43;5.40;;;18.00;99.90;;;;;;4934418;29;20885;-67
2021/08/20 03:45:22;;;;;;;4.53;3.30;;;17.80;99.90;;;;;;4934437;29;20501;-66
2021/08/20 03:47:51;;;;;;;4.43;3.40;;;17.60;1.00;;;;;;4934327;29;20483;-66
2021/08/20 03:50:20;;;;;;;7.70;4.80;;;17.60;99.90;;;;;;4951479;29;20530;-66
2021/08/20 03:52:48;;;;;;;5.33;4.33;;;17.50;1.00;;;;;;4933972;29;20461;-67
2021/08/20 03:55:18;;;;;;;7.00;4.00;;;17.40;19.00;;;;;;4934058;29;20463;-67
2021/08/20 03:58:06;;;;;;;4.80;4.30;;;17.50;1.00;;;;;;4951210;29;20414;-67
2021/08/20 04:00:36;;;;;;;4.77;3.87;;;17.70;1.00;;;;;;4934126;29;20440;-67
2021/08/20 04:03:07;;;;;;;10.93;4.70;;;17.90;99.90;;;;;;4935949;29;20434;-67
2021/08/20 04:05:38;;;;;;;4.60;3.93;;;17.90;1.00;;;;;;4937358;29;20418;-66
2021/08/20 04:08:11;;;;;;;6.20;4.30;;;17.90;1.00;;;;;;4937277;29;20481;-66
2021/08/20 04:10:58;;;;;;;5.07;4.03;;;17.90;1.00;;;;;;4954870;29;20453;-66
2021/08/20 04:13:36;;;;;;;7.20;5.00;;;18.00;99.90;;;;;;4937492;29;20465;-67
2021/08/20 04:16:05;;;;;;;3.77;3.47;;;17.90;99.90;;;;;;4937331;29;20494;-66
2021/08/20 04:18:33;;;;;;;6.33;4.27;;;17.90;89.40;;;;;;4954466;29;20431;-66
2021/08/20 04:21:03;;;;;;;7.60;4.93;;;17.50;1.00;;;;;;4937473;29;20781;-66
2021/08/20 04:23:31;;;;;;;9.30;4.40;;;16.90;57.40;;;;;;4937616;29;20442;-66
2021/08/20 04:26:02;;;;;;;8.10;5.50;;;16.50;99.90;;;;;;4936944;29;20475;-66
2021/08/20 04:29:06;;;;;;;7.87;5.53;;;16.20;84.80;;;;;;4876358;29;20909;-68
2021/08/20 04:31:50;;;;;;;6.63;5.80;;;16.10;99.90;;;;;;4916337;29;20454;-68
2021/08/20 04:34:45;;;;;;;9.10;6.10;;;16.00;99.90;;;;;;4920267;29;20414;-67
2021/08/20 04:37:53;;;;;;;8.20;5.23;;;15.90;99.90;;;;;;4875775;29;20446;-68
2021/08/20 04:40:56;;;;;;;7.47;6.20;;;16.10;99.90;;;;;;4857375;29;20413;-67
2021/08/20 04:43:47;;;;;;;7.40;5.80;;;16.10;99.90;;;;;;4927118;29;20880;-67
2021/08/20 04:46:44;;;;;;;8.57;6.57;;;16.40;99.90;;;;;;4925963;29;20478;-67
2021/08/20 04:49:21;;;;;;;6.67;5.00;;;16.50;99.90;;;;;;4917897;29;20930;-67
2021/08/20 04:52:00;;;;;;;5.80;5.00;;;16.30;99.90;;;;;;4918070;29;20450;-66
2021/08/20 04:54:40;;;;;;;6.17;5.10;;;16.20;99.90;;;;;;4917278;29;20981;-66
2021/08/20 04:57:11;;;;;;;8.23;6.60;;;16.50;99.90;;;;;;4934197;29;20410;-67
2021/08/20 04:59:40;;;;;;;6.83;5.37;;;16.90;99.90;;;;;;4917099;29;20415;-68
2021/08/20 05:02:08;;;;;;;5.30;4.60;;;17.20;99.90;;;;;;4934486;29;20444;-67
2021/08/20 05:04:37;;;;;;;6.30;4.73;;;17.50;99.90;;;;;;4934577;29;20807;-67
2021/08/20 05:07:06;;;;;;;5.90;5.30;;;17.70;99.90;;;;;;4934106;29;20439;-66
2021/08/20 05:09:34;;;;;;;8.17;4.43;;;17.90;99.90;;;;;;4934046;29;20915;-66
2021/08/20 05:12:04;;;;;;;8.43;5.43;;;17.90;99.90;;;;;;4934803;29;20478;-67
2021/08/20 05:14:32;;;;;;;5.33;4.60;;;18.00;6.00;;;;;;4934039;29;20955;-66
2021/08/20 05:17:00;;;;;;;9.03;5.03;;;17.90;1.00;;;;;;4934237;29;20411;-66
2021/08/20 05:19:28;;;;;;;9.20;7.13;;;17.80;19.50;;;;;;4934400;29;20428;-66
2021/08/20 05:21:57;;;;;;;7.73;5.13;;;17.70;49.50;;;;;;4934455;29;20872;-68
2021/08/20 05:24:25;;;;;;;7.17;5.27;;;17.60;45.10;;;;;;4934125;29;20429;-67
2021/08/20 05:26:53;;;;;;;6.03;5.43;;;17.30;85.00;;;;;;4934069;29;20463;-67
2021/08/20 05:29:22;;;;;;;6.97;5.43;;;17.30;1.00;;;;;;4934238;29;20406;-67
2021/08/20 05:31:50;;;;;;;6.90;5.23;;;17.30;99.90;;;;;;4934152;29;20487;-67
2021/08/20 05:34:20;;;;;;;5.90;4.70;;;17.50;99.90;;;;;;4934080;29;20424;-67
2021/08/20 05:36:48;;;;;;;8.57;4.57;;;17.70;32.70;;;;;;4933998;29;20443;-66
2021/08/20 05:39:16;;;;;;;6.43;4.70;;;17.80;99.90;;;;;;4934035;29;20414;-67
2021/08/20 05:41:44;;;;;;;4.93;4.37;;;18.00;99.90;;;;;;4934052;29;20442;-66
2021/08/20 05:44:12;;;;;;;5.73;4.93;;;18.10;1.00;;;;;;4933883;29;20411;-67
2021/08/20 05:46:42;;;;;;;13.03;5.50;;;18.20;99.90;;;;;;4933630;29;20526;-67
2021/08/20 05:49:10;;;;;;;6.57;5.87;;;18.20;99.90;;;;;;4933285;29;20491;-67
2021/08/20 05:51:38;;;;;;;5.93;5.33;;;18.20;1.00;;;;;;4930871;29;20456;-67
2021/08/20 05:54:06;;;;;;;8.57;6.43;;;18.20;1.00;;;;;;4933730;29;20867;-67
2021/08/20 05:56:34;;;;;;;6.97;5.80;;;18.10;1.00;;;;;;4933842;29;20407;-67
2021/08/20 05:59:02;;;;;;;7.40;5.90;;;18.10;77.60;;;;;;4933758;29;20491;-68
2021/08/20 06:01:31;;;;;;;7.47;5.47;;;18.10;1.00;;;;;;4934076;29;20934;-67
2021/08/20 06:04:01;;;;;;;8.00;5.10;;;18.10;1.00;;;;;;4916712;29;20415;-67
2021/08/20 06:06:37;;;;;;;10.43;5.93;;;18.00;47.10;;;;;;4916235;29;20472;-68
2021/08/20 06:09:06;;;;;;;10.10;6.90;;;17.90;1.00;;;;;;4916255;29;20430;-67
2021/08/20 06:11:35;;;;;;;8.90;5.97;;;18.10;99.90;;;;;;4933645;29;20452;-67
2021/08/20 06:14:03;;;;;;;9.87;6.60;;;18.10;1.00;;;;;;4933392;29;20512;-67
2021/08/20 06:16:31;;;;;;;8.30;7.20;;;18.10;1.00;;;;;;4933103;29;20463;-67
2021/08/20 06:19:00;;;;;;;9.57;6.50;;;18.20;1.00;;;;;;4933425;29;20456;-67
2021/08/20 06:21:29;;;;;;;7.67;5.93;;;17.70;1.00;;;;;;4933181;29;20498;-67
2021/08/20 06:23:57;;;;;;;8.07;6.70;;;17.40;99.90;;;;;;4933442;29;20429;-67
2021/08/20 06:26:25;;;;;;;15.07;10.60;;;17.30;1.00;;;;;;4932366;29;20411;-66
2021/08/20 06:28:54;;;;;;;13.40;9.40;;;17.60;1.00;;;;;;4934855;29;20429;-66
2021/08/20 06:31:23;;;;;;;12.33;11.03;;;17.80;99.90;;;;;;4918567;29;20479;-66
2021/08/20 06:33:53;;;;;;;13.47;12.00;;;18.30;1.00;;;;;;4933718;29;20962;-66
2021/08/20 06:36:23;;;;;;;14.37;11.97;;;18.60;1.00;;;;;;4932598;29;20425;-66
2021/08/20 06:38:51;;;;;;;12.40;11.10;;;18.80;21.40;;;;;;4932805;29;20391;-66
2021/08/20 06:41:19;;;;;;;12.93;9.30;;;19.00;99.90;;;;;;4932509;29;20780;-66
2021/08/20 06:43:47;;;;;;;15.13;12.27;;;19.20;99.90;;;;;;4915548;29;20467;-67
2021/08/20 06:46:16;;;;;;;13.33;10.00;;;19.40;99.90;;;;;;4932697;29;20400;-66
2021/08/20 06:48:44;;;;;;;13.70;9.40;;;19.60;1.00;;;;;;4932885;29;20407;-66
2021/08/20 06:51:13;;;;;;;13.10;11.70;;;19.90;1.00;;;;;;4932486;29;20441;-66
2021/08/20 06:53:43;;;;;;;12.07;10.80;;;19.90;1.00;;;;;;4932995;29;20627;-67
2021/08/20 06:56:11;;;;;;;13.47;9.00;;;20.00;1.00;;;;;;4932333;29;20824;-66
2021/08/20 06:58:39;;;;;;;11.70;9.17;;;20.00;1.00;;;;;;4932799;29;20786;-66
2021/08/20 07:01:08;;;;;;;10.60;8.93;;;20.10;1.00;;;;;;4932387;29;20498;-64
2021/08/20 07:03:36;;;;;;;13.33;9.60;;;19.80;1.00;;;;;;4932717;29;20792;-67
2021/08/20 07:06:05;;;;;;;15.30;12.17;;;19.70;1.00;;;;;;4932849;29;20476;-66
2021/08/20 07:08:34;;;;;;;17.07;12.57;;;19.80;1.00;;;;;;4932637;29;20408;-66
2021/08/20 07:11:03;;;;;;;14.30;12.20;;;19.90;1.00;;;;;;4932067;29;20911;-66
2021/08/20 07:13:31;;;;;;;17.10;11.23;;;20.00;1.00;;;;;;4932787;29;21015;-65
2021/08/20 07:15:59;;;;;;;18.53;10.20;;;20.00;1.00;;;;;;4932907;29;20914;-66
2021/08/20 07:18:28;;;;;;;14.53;12.13;;;20.20;1.00;;;;;;4931579;29;20433;-65
2021/08/20 07:20:56;;;;;;;13.73;11.00;;;20.30;99.90;;;;;;4932525;29;20429;-67
2021/08/20 07:23:25;;;;;;;16.00;13.10;;;20.00;99.90;;;;;;4932843;29;20491;-66
2021/08/20 07:25:53;;;;;;;15.17;12.00;;;19.50;99.90;;;;;;4932622;29;20400;-65
2021/08/20 07:28:23;;;;;;;17.70;13.70;;;19.30;1.00;;;;;;4933160;29;20415;-66
2021/08/20 07:30:51;;;;;;;18.33;11.37;;;19.10;1.00;;;;;;4932683;29;20452;-67
2021/08/20 07:33:19;;;;;;;18.40;13.90;;;19.00;30.50;;;;;;4932816;29;20464;-67
2021/08/20 07:35:47;;;;;;;16.77;13.87;;;19.20;1.00;;;;;;4931248;29;20837;-66
2021/08/20 07:38:16;;;;;;;16.50;12.53;;;18.80;1.00;;;;;;4939223;28;20478;-66
2021/08/20 07:40:44;;;;;;;17.50;14.00;;;18.70;86.60;;;;;;4948579;29;20410;-65
2021/08/20 07:43:12;;;;;;;21.27;16.90;;;18.60;99.90;;;;;;4955939;29;20424;-66
2021/08/20 07:45:42;;;;;;;18.70;14.50;;;18.60;99.90;;;;;;4955708;29;20446;-66
2021/08/20 07:48:12;;;;;;;21.13;15.30;;;18.60;99.90;;;;;;4955605;29;20426;-66
2021/08/20 07:50:42;;;;;;;20.50;16.97;;;18.50;99.90;;;;;;4955580;29;20391;-66
2021/08/20 07:53:10;;;;;;;16.37;11.37;;;18.30;99.90;;;;;;4938160;29;20808;-67
2021/08/20 07:55:38;;;;;;;12.83;10.33;;;17.70;41.90;;;;;;4955121;29;20418;-67
2021/08/20 07:58:06;;;;;;;15.17;10.50;;;17.30;99.90;;;;;;4955169;29;20417;-66
2021/08/20 08:00:34;;;;;;;15.13;10.40;;;17.00;99.90;;;;;;4955130;29;20947;-66
2021/08/20 08:03:04;;;;;;;14.50;9.97;;;16.90;1.00;;;;;;4954871;29;20418;-65
2021/08/20 08:05:33;;;;;;;13.47;9.90;;;17.00;99.90;;;;;;4937702;29;20974;-66
2021/08/20 08:08:02;;;;;;;11.23;8.90;;;17.10;1.00;;;;;;4954753;29;20497;-67
2021/08/20 08:10:30;;;;;;;13.23;9.83;;;17.20;1.00;;;;;;4955120;29;20444;-66
2021/08/20 08:12:58;;;;;;;11.97;8.77;;;17.50;1.00;;;;;;4954653;29;21219;-66
2021/08/20 08:15:26;;;;;;;14.60;9.90;;;17.50;99.90;;;;;;4955428;29;20437;-66
2021/08/20 08:17:56;;;;;;;14.83;9.20;;;17.50;99.90;;;;;;4954963;29;20937;-66
2021/08/20 08:20:26;;;;;;;10.13;8.83;;;17.50;99.90;;;;;;4955132;29;20442;-68
2021/08/20 08:22:54;;;;;;;11.77;8.40;;;17.50;99.90;;;;;;4954847;29;20440;-66
2021/08/20 08:25:23;;;;;;;13.50;9.77;;;17.50;38.10;;;;;;4953929;29;20451;-67
2021/08/20 08:27:56;;;;;;;9.87;8.37;;;17.40;1.00;;;;;;4954564;29;20398;-66
2021/08/20 08:30:27;;;;;;;8.50;7.10;;;17.50;99.90;;;;;;4954845;29;20424;-66
2021/08/20 08:32:57;;;;;;;11.43;8.97;;;17.50;59.60;;;;;;4954658;29;20452;-66
2021/08/20 08:35:28;;;;;;;11.27;9.70;;;17.60;99.90;;;;;;4954604;29;20435;-67
2021/08/20 08:38:03;;;;;;;10.43;8.40;;;17.50;1.00;;;;;;4954729;29;20403;-67
2021/08/20 08:40:32;;;;;;;15.80;10.07;;;17.40;99.90;;;;;;4954554;29;20400;-67
2021/08/20 08:43:01;;;;;;;10.83;8.20;;;17.40;24.40;;;;;;4954681;29;20781;-66
2021/08/20 08:45:29;;;;;;;8.67;7.77;;;17.50;20.40;;;;;;4954575;29;20431;-66
2021/08/20 08:47:57;;;;;;;10.33;7.77;;;17.30;1.00;;;;;;4947563;28;20568;-66
2021/08/20 08:50:27;;;;;;;11.30;8.10;;;17.20;1.00;;;;;;4952642;29;20469;-65
2021/08/20 08:52:55;;;;;;;9.73;8.10;;;17.10;1.00;;;;;;4954596;29;20426;-65
2021/08/20 08:55:24;;;;;;;9.53;7.83;;;17.30;34.20;;;;;;4938108;29;20458;-64
2021/08/20 08:57:52;;;;;;;12.20;8.40;;;17.50;1.00;;;;;;4953439;29;20472;-64
2021/08/20 09:00:30;;;;;;;10.00;8.20;;;17.60;99.90;;;;;;4954495;29;21183;-64
2021/08/20 09:02:59;;;;;;;9.70;8.07;;;17.50;99.90;;;;;;4954147;29;20418;-67
2021/08/20 09:05:42;;;;;;;11.70;8.30;;;17.60;99.90;;;;;;4953841;29;20395;-65
2021/08/20 09:08:12;;;;;;;11.60;8.13;;;17.70;99.90;;;;;;4953814;29;20395;-65
2021/08/20 09:10:48;;;;;;;12.43;9.50;;;17.90;1.00;;;;;;4953985;29;20410;-63
2021/08/20 09:13:17;;;;;;;10.70;8.83;;;18.00;1.00;;;;;;4953634;29;20439;-66
2021/08/20 09:15:46;;;;;;;9.03;6.93;;;18.10;1.00;;;;;;4953781;29;20451;-68
2021/08/20 09:18:22;;;;;;;7.53;6.70;;;18.20;1.00;;;;;;4954206;29;20443;-64
2021/08/20 09:20:52;;;;;;;7.77;6.30;;;18.40;1.00;;;;;;4953771;29;20409;-65
2021/08/20 09:23:23;;;;;;;8.00;6.80;;;18.40;1.00;;;;;;4953986;29;20407;-65
2021/08/20 09:25:53;;;;;;;10.07;5.93;;;18.50;1.00;;;;;;4936463;29;20446;-65
2021/08/20 09:28:24;;;;;;;5.33;4.57;;;18.40;1.00;;;;;;4953923;29;20450;-65
2021/08/20 09:31:09;;;;;;;6.40;5.00;;;18.20;99.90;;;;;;4953313;29;20407;-65
2021/08/20 09:33:39;;;;;;;4.37;3.97;;;18.20;99.90;;;;;;4953779;29;20386;-64
2021/08/20 09:36:10;;;;;;;4.07;2.80;;;18.20;1.00;;;;;;4953373;29;20418;-66
2021/08/20 09:38:40;;;;;;;2.77;2.20;;;18.40;99.90;;;;;;4953528;29;20432;-65
2021/08/20 09:41:15;;;;;;;2.60;1.90;;;18.70;99.90;;;;;;4954065;29;20451;-66
2021/08/20 09:43:47;;;;;;;6.30;2.10;;;18.60;99.90;;;;;;4953127;29;20893;-64
2021/08/20 09:46:23;;;;;;;2.10;1.60;;;18.50;99.90;;;;;;4945278;29;20753;-64
2021/08/20 09:48:53;;;;;;;2.53;1.80;;;18.60;99.90;;;;;;4934304;29;20982;-66
2021/08/20 09:51:37;;;;;;;2.50;1.90;;;18.80;99.90;;;;;;4934680;29;20419;-65
2021/08/20 09:54:06;;;;;;;3.23;2.13;;;18.80;99.90;;;;;;4934549;29;20423;-65
2021/08/20 09:56:53;;;;;;;2.63;1.80;;;18.80;99.90;;;;;;4933693;29;20488;-66
2021/08/20 09:59:27;;;;;;;1.70;1.30;;;19.30;99.90;;;;;;4933689;29;20807;-66
2021/08/20 10:01:57;;;;;;;2.50;2.17;;;19.10;99.90;;;;;;4933560;29;20518;-65
2021/08/20 10:04:28;;;;;;;11.00;2.53;;;19.30;99.90;;;;;;4931179;29;20516;-66
2021/08/20 10:07:00;;;;;;;2.53;1.90;;;19.30;99.90;;;;;;4934150;29;20479;-66
2021/08/20 10:09:30;;;;;;;1.87;1.13;;;19.00;99.90;;;;;;4916879;29;20448;-66
2021/08/20 10:12:00;;;;;;;1.83;1.10;;;18.70;99.90;;;;;;4933770;29;20434;-66
2021/08/20 10:14:30;;;;;;;2.10;1.13;;;18.90;99.90;;;;;;4934477;29;20462;-65
2021/08/20 10:16:58;;;;;;;2.30;1.50;;;19.30;99.90;;;;;;4933642;29;20479;-66
2021/08/20 10:19:27;;;;;;;1.83;1.10;;;19.40;99.90;;;;;;4934108;29;20519;-66
2021/08/20 10:22:00;;;;;;;2.77;2.07;;;19.20;99.90;;;;;;4934114;29;20480;-65
2021/08/20 10:24:28;;;;;;;2.80;1.80;;;19.00;99.90;;;;;;4933984;29;20400;-66
2021/08/20 10:27:00;;;;;;;2.43;1.93;;;19.00;99.90;;;;;;4933286;29;20425;-65
2021/08/20 10:29:31;;;;;;;7.43;3.37;;;19.30;99.90;;;;;;4933225;29;20449;-66
2021/08/20 10:32:03;;;;;;;4.80;3.90;;;19.60;99.90;;;;;;4930781;29;20454;-66
2021/08/20 10:34:36;;;;;;;5.50;5.00;;;19.80;99.90;;;;;;4932054;29;20462;-66
2021/08/20 10:37:08;;;;;;;3.97;2.97;;;20.00;99.90;;;;;;4932071;29;20407;-65
2021/08/20 10:39:37;;;;;;;6.40;3.80;;;20.40;99.90;;;;;;4933649;29;20722;-66
2021/08/20 10:42:07;;;;;;;4.50;3.50;;;20.60;99.90;;;;;;4933951;29;20861;-66
2021/08/20 10:44:37;;;;;;;4.90;2.60;;;20.80;99.90;;;;;;4934318;29;20498;-66
2021/08/20 10:47:08;;;;;;;4.60;4.13;;;21.30;99.90;;;;;;4933134;29;20468;-66
2021/08/20 10:49:45;;;;;;;4.80;4.00;;;21.90;99.90;;;;;;4934240;29;20400;-65
2021/08/20 10:52:32;;;;;;;5.53;4.10;;;21.90;95.30;;;;;;4933655;29;20418;-66
2021/08/20 10:55:25;;;;;;;5.20;4.70;;;21.70;92.10;;;;;;4933983;29;20962;-66
2021/08/20 10:58:10;;;;;;;5.40;4.10;;;21.10;89.40;;;;;;4933623;29;20422;-65
2021/08/20 11:00:57;;;;;;;4.13;3.70;;;20.90;92.50;;;;;;4933662;29;20410;-65
2021/08/20 11:03:46;;;;;;;5.87;4.37;;;20.80;95.30;;;;;;4933846;29;20435;-65
2021/08/20 11:06:52;;;;;;;6.93;5.23;;;21.00;92.40;;;;;;4916204;29;20509;-66
2021/08/20 11:09:30;;;;;;;5.80;3.90;;;20.60;91.10;;;;;;4933729;29;20461;-65
2021/08/20 11:11:59;;;;;;;6.77;4.53;;;20.50;95.30;;;;;;4933163;29;20447;-66
2021/08/20 11:14:37;;;;;;;6.83;4.00;;;20.60;96.80;;;;;;4933471;29;20443;-66
2021/08/20 11:17:07;;;;;;;5.43;4.90;;;21.20;91.10;;;;;;4933161;29;20439;-65
2021/08/20 11:19:54;;;;;;;5.67;5.07;;;21.60;84.80;;;;;;4933670;29;20442;-65
2021/08/20 11:22:24;;;;;;;3.20;2.90;;;21.60;75.60;;;;;;4916530;29;20466;-65
2021/08/20 11:25:23;;;;;;;5.67;3.63;;;22.00;79.30;;;;;;4933628;29;20409;-66
2021/08/20 11:27:59;;;;;;;7.83;4.10;;;22.60;65.90;;;;;;4933364;29;20484;-66
2021/08/20 11:30:29;;;;;;;7.70;5.87;;;22.10;57.80;;;;;;4933344;29;20792;-65
2021/08/20 11:33:20;;;;;;;5.90;5.17;;;21.50;55.20;;;;;;4933497;29;20455;-66
2021/08/20 11:36:01;;;;;;;7.00;5.07;;;21.20;55.20;;;;;;4933222;29;20546;-65
2021/08/20 11:38:36;;;;;;;5.00;4.53;;;21.40;55.30;;;;;;4933128;29;20442;-64
2021/08/20 11:41:11;;;;;;;4.60;4.20;;;21.40;55.10;;;;;;4933278;29;20484;-64
2021/08/20 11:43:56;;;;;;;6.83;5.73;;;21.50;55.50;;;;;;4933415;29;20492;-65
2021/08/20 11:46:26;;;;;;;9.30;6.83;;;21.70;53.50;;;;;;4933160;29;20551;-66
2021/08/20 11:48:57;;;;;;;6.97;5.20;;;21.60;52.20;;;;;;4933616;29;20431;-65
2021/08/20 11:51:28;;;;;;;7.10;6.40;;;21.40;48.80;;;;;;4933209;29;20452;-65
2021/08/20 11:53:56;;;;;;;6.50;5.70;;;21.10;48.10;;;;;;4933258;29;20429;-66
2021/08/20 11:56:27;;;;;;;6.00;5.20;;;20.70;46.40;;;;;;4932876;29;20559;-65
2021/08/20 11:58:55;;;;;;;5.70;5.10;;;20.40;46.80;;;;;;4916513;29;20948;-66
2021/08/20 12:01:25;;;;;;;6.80;6.10;;;20.40;54.60;;;;;;4932910;29;20448;-65
2021/08/20 12:03:56;;;;;;;5.80;5.10;;;20.10;50.90;;;;;;4932706;29;20428;-65
2021/08/20 12:06:26;;;;;;;7.73;6.63;;;20.00;55.40;;;;;;4931987;29;20840;-66
2021/08/20 12:08:57;;;;;;;6.63;5.87;;;19.80;60.20;;;;;;4931975;29;20395;-66
2021/08/20 12:11:30;;;;;;;6.77;5.77;;;19.80;59.80;;;;;;4932651;29;20917;-66
2021/08/20 12:13:58;;;;;;;8.67;6.40;;;19.80;58.50;;;;;;4932162;29;20940;-65
2021/08/20 12:16:39;;;;;;;7.97;6.80;;;19.70;58.60;;;;;;4931830;29;20871;-68
2021/08/20 12:19:17;;;;;;;7.13;6.50;;;19.70;61.60;;;;;;4914519;29;20516;-68
2021/08/20 12:21:48;;;;;;;6.53;5.83;;;19.70;70.90;;;;;;4932403;29;20459;-69
2021/08/20 12:24:30;;;;;;;7.13;6.00;;;19.60;74.90;;;;;;4934496;29;21134;-67
2021/08/20 12:27:15;;;;;;;6.47;5.87;;;19.60;72.50;;;;;;4935241;29;20479;-65
2021/08/20 12:29:44;;;;;;;7.30;6.63;;;19.60;77.90;;;;;;4935681;29;20410;-66
2021/08/20 12:32:21;;;;;;;7.57;6.73;;;19.60;86.90;;;;;;4935478;29;20511;-66
2021/08/20 12:34:58;;;;;;;11.00;8.03;;;19.70;92.10;;;;;;4935472;29;20974;-67
2021/08/20 12:37:26;;;;;;;9.63;8.63;;;20.00;87.10;;;;;;4934408;29;20475;-66
2021/08/20 12:40:04;;;;;;;16.33;9.50;;;20.30;73.70;;;;;;4935288;29;20743;-67
2021/08/20 12:42:43;;;;;;;8.57;7.03;;;20.80;77.40;;;;;;4935180;29;20789;-68
2021/08/20 12:45:14;;;;;;;9.20;7.50;;;20.90;63.10;;;;;;4935333;29;21274;-67
2021/08/20 12:47:43;;;;;;;8.60;7.20;;;21.20;59.10;;;;;;4935152;29;20426;-67
2021/08/20 12:50:13;;;;;;;8.63;7.83;;;21.40;54.50;;;;;;4935118;29;20400;-66
2021/08/20 12:52:43;;;;;;;9.00;8.20;;;21.60;50.60;;;;;;4918119;29;20842;-66
2021/08/20 12:55:29;;;;;;;8.50;7.70;;;21.60;45.40;;;;;;4935228;29;20437;-67
2021/08/20 12:58:00;;;;;;;6.87;6.27;;;22.00;46.20;;;;;;4935019;29;20899;-71
2021/08/20 13:00:31;;;;;;;8.13;6.70;;;22.40;43.10;;;;;;4935350;29;20932;-68
2021/08/20 13:03:01;;;;;;;8.00;7.20;;;22.80;41.30;;;;;;4935441;29;20423;-67
2021/08/20 13:05:52;;;;;;;7.57;6.70;;;23.30;38.20;;;;;;4935028;29;20488;-65
2021/08/20 13:08:22;;;;;;;8.43;7.10;;;23.90;35.10;;;;;;4934985;29;20532;-68
2021/08/20 13:10:51;;;;;;;8.33;6.87;;;24.20;33.80;;;;;;4935815;29;20457;-67